createdAt,value
2022-10-05T00:01:45.105Z,85.08
2022-10-05T00:04:20.274Z,85.32
2022-10-05T00:07:02.100Z,84.82
2022-10-05T00:09:31.594Z,85.30
2022-10-05T00:11:58.260Z,84.90
2022-10-05T00:14:31.910Z,85.13
2022-10-05T00:16:58.745Z,84.92
2022-10-05T00:19:33.324Z,84.82
2022-10-05T00:22:13.259Z,84.91
2022-10-05T00:24:40.191Z,84.89
2022-10-05T00:27:21.841Z,85.06
2022-10-05T00:29:50.526Z,84.83
2022-10-05T00:32:17.758Z,85.21
2022-10-05T00:34:45.055Z,85.13
2022-10-05T00:37:13.536Z,85.10
2022-10-05T00:39:41.154Z,85.02
2022-10-05T00:42:37.223Z,85.26
2022-10-05T00:45:11.592Z,85.10
2022-10-05T00:47:47.063Z,84.86
2022-10-05T00:50:19.689Z,85.33
2022-10-05T00:53:15.461Z,85.69
2022-10-05T00:55:50.864Z,85.76
2022-10-05T00:58:29.423Z,85.56
2022-10-05T01:01:11.243Z,85.47
2022-10-05T01:03:57.663Z,85.27
2022-10-05T01:07:01.155Z,85.61
2022-10-05T01:09:41.962Z,85.77
2022-10-05T01:12:24.490Z,85.72
2022-10-05T01:15:02.205Z,85.95
2022-10-05T01:17:40.393Z,85.98
2022-10-05T01:20:17.073Z,86.30
2022-10-05T01:23:15.060Z,86.53
2022-10-05T01:26:19.944Z,86.56
2022-10-05T01:28:59.723Z,86.77
2022-10-05T01:32:08.632Z,86.49
2022-10-05T01:34:43.086Z,86.61
2022-10-05T01:37:29.363Z,86.73
2022-10-05T01:40:04.836Z,86.98
2022-10-05T01:42:49.448Z,87.00
2022-10-05T01:45:32.148Z,87.11
2022-10-05T01:48:09.849Z,86.94
2022-10-05T01:50:56.172Z,86.93
2022-10-05T01:53:43.561Z,87.33
2022-10-05T01:56:28.571Z,87.38
2022-10-05T01:59:01.651Z,87.60
2022-10-05T02:01:39.048Z,87.67
2022-10-05T02:04:35.584Z,87.83
2022-10-05T02:07:10.356Z,87.83
2022-10-05T02:09:44.756Z,88.26
2022-10-05T02:12:17.543Z,88.39
2022-10-05T02:14:49.372Z,88.21
2022-10-05T02:17:33.592Z,87.80
2022-10-05T02:20:03.809Z,88.45
2022-10-05T02:22:44.919Z,88.57
2022-10-05T02:25:19.687Z,88.70
2022-10-05T02:28:02.275Z,88.82
2022-10-05T02:30:32.445Z,89.00
2022-10-05T02:33:09.099Z,88.94
2022-10-05T02:35:35.593Z,89.27
2022-10-05T02:38:17.082Z,89.29
2022-10-05T02:40:52.698Z,89.41
2022-10-05T02:43:32.038Z,89.76
2022-10-05T02:46:14.437Z,89.68
2022-10-05T02:48:44.898Z,89.65
2022-10-05T02:51:24.743Z,89.60
2022-10-05T02:54:09.581Z,89.81
2022-10-05T02:56:54.958Z,89.44
2022-10-05T02:59:34.033Z,89.55
2022-10-05T03:02:22.672Z,89.43
2022-10-05T03:05:04.986Z,89.86
2022-10-05T03:07:39.303Z,89.98
2022-10-05T03:10:09.451Z,89.87
2022-10-05T03:12:38.929Z,89.61
2022-10-05T03:15:39.288Z,89.56
2022-10-05T03:18:30.762Z,89.68
2022-10-05T03:21:33.468Z,89.34
2022-10-05T03:24:21.966Z,89.29
2022-10-05T03:26:54.853Z,89.55
2022-10-05T03:29:33.946Z,89.32
2022-10-05T03:32:14.633Z,89.45
2022-10-05T03:34:47.937Z,89.17
2022-10-05T03:37:27.991Z,89.27
2022-10-05T03:40:02.484Z,89.02
2022-10-05T03:42:47.130Z,88.84
2022-10-05T03:45:34.935Z,88.26
2022-10-05T03:48:08.922Z,88.03
2022-10-05T03:50:41.110Z,87.78
2022-10-05T03:53:21.007Z,87.86
2022-10-05T03:56:04.438Z,87.68
2022-10-05T03:58:50.616Z,87.42
2022-10-05T04:01:25.427Z,87.32
2022-10-05T04:04:02.225Z,87.42
2022-10-05T04:06:41.179Z,87.00
2022-10-05T04:09:20.972Z,86.91
2022-10-05T04:12:12.449Z,86.88
2022-10-05T04:14:44.692Z,86.29
2022-10-05T04:17:31.243Z,86.91
2022-10-05T04:20:27.156Z,86.60
2022-10-05T04:23:16.576Z,86.61
2022-10-05T04:25:50.440Z,86.48
2022-10-05T04:28:29.666Z,86.63
2022-10-05T04:31:00.454Z,86.30
2022-10-05T04:33:27.444Z,85.93
2022-10-05T04:36:31.838Z,86.11
2022-10-05T04:39:29.317Z,85.80
2022-10-05T04:42:33.034Z,85.79
2022-10-05T04:45:32.591Z,85.59
2022-10-05T04:48:04.692Z,85.81
2022-10-05T04:50:34.084Z,85.25
2022-10-05T04:53:36.160Z,85.49
2022-10-05T04:56:15.423Z,85.20
2022-10-05T04:58:46.911Z,85.19
2022-10-05T05:01:23.642Z,85.27
2022-10-05T05:04:14.821Z,84.76
2022-10-05T05:07:18.602Z,84.60
2022-10-05T05:10:23.143Z,84.58
2022-10-05T05:13:15.165Z,84.18
2022-10-05T05:15:50.769Z,84.36
2022-10-05T05:18:48.823Z,83.90
2022-10-05T05:21:39.840Z,83.96
2022-10-05T05:24:20.687Z,83.92
2022-10-05T05:27:01.383Z,84.08
2022-10-05T05:29:43.485Z,83.95
2022-10-05T05:32:18.603Z,84.00
2022-10-05T05:35:36.721Z,84.04
2022-10-05T05:38:20.790Z,84.16
2022-10-05T05:41:07.476Z,84.43
2022-10-05T05:44:04.653Z,84.54
2022-10-05T05:47:02.503Z,84.44
2022-10-05T05:50:06.357Z,84.92
2022-10-05T05:52:36.283Z,85.60
2022-10-05T05:55:13.887Z,85.27
2022-10-05T05:57:51.989Z,85.29
2022-10-05T06:00:27.399Z,85.54
2022-10-05T06:02:59.142Z,85.81
2022-10-05T06:05:39.228Z,85.88
2022-10-05T06:08:35.506Z,85.84
2022-10-05T06:11:23.334Z,85.98
2022-10-05T06:13:51.531Z,86.22
2022-10-05T06:16:39.899Z,86.20
2022-10-05T06:19:14.310Z,85.68
2022-10-05T06:21:55.090Z,85.91
2022-10-05T06:24:49.760Z,85.73
2022-10-05T06:27:40.537Z,86.08
2022-10-05T06:30:15.991Z,86.00
2022-10-05T06:33:21.074Z,85.91
2022-10-05T06:36:11.096Z,86.05
2022-10-05T06:39:07.928Z,86.03
2022-10-05T06:41:56.587Z,86.06
2022-10-05T06:45:15.050Z,86.16
2022-10-05T06:48:12.419Z,86.30
2022-10-05T06:51:00.455Z,86.29
2022-10-05T06:53:42.165Z,86.39
2022-10-05T06:56:22.706Z,85.74
2022-10-05T06:58:49.438Z,85.87
2022-10-05T07:01:45.801Z,85.79
2022-10-05T07:04:54.728Z,85.56
2022-10-05T07:07:39.799Z,85.83
2022-10-05T07:10:27.816Z,85.35
2022-10-05T07:13:08.483Z,85.79
2022-10-05T07:15:38.059Z,85.41
2022-10-05T07:18:19.790Z,85.21
2022-10-05T07:21:05.153Z,85.20
2022-10-05T07:23:56.555Z,85.46
2022-10-05T07:26:32.174Z,85.25
2022-10-05T07:29:07.889Z,85.24
2022-10-05T07:31:49.619Z,85.61
2022-10-05T07:34:52.428Z,85.51
2022-10-05T07:37:45.594Z,85.30
2022-10-05T07:40:23.537Z,85.10
2022-10-05T07:43:12.031Z,85.33
2022-10-05T07:45:53.377Z,85.04
2022-10-05T07:48:23.452Z,84.54
2022-10-05T07:51:45.013Z,85.06
2022-10-05T07:54:21.952Z,85.05
2022-10-05T07:56:58.423Z,85.08
2022-10-05T07:59:36.520Z,85.00
2022-10-05T08:02:47.010Z,84.75
2022-10-05T08:05:22.128Z,84.72
2022-10-05T08:07:54.571Z,84.11
2022-10-05T08:10:41.719Z,84.58
2022-10-05T08:13:21.931Z,84.54
2022-10-05T08:15:53.816Z,83.90
2022-10-05T08:18:44.532Z,84.08
2022-10-05T08:21:13.506Z,84.69
2022-10-05T08:23:54.014Z,83.73
2022-10-05T08:26:45.063Z,83.51
2022-10-05T08:29:31.735Z,83.59
2022-10-05T08:32:03.235Z,83.58
2022-10-05T08:34:37.303Z,83.68
2022-10-05T08:37:17.799Z,83.49
2022-10-05T08:39:56.214Z,83.39
2022-10-05T08:42:35.316Z,83.02
2022-10-05T08:45:44.279Z,82.91
2022-10-05T08:48:35.969Z,82.47
2022-10-05T08:51:23.316Z,82.74
2022-10-05T08:54:28.482Z,82.94
2022-10-05T08:57:13.609Z,82.40
2022-10-05T09:00:01.421Z,82.37
2022-10-05T09:02:49.725Z,81.94
2022-10-05T09:05:44.026Z,82.24
2022-10-05T09:08:48.825Z,81.79
2022-10-05T09:11:49.940Z,81.43
2022-10-05T09:15:20.529Z,81.12
2022-10-05T09:18:20.144Z,81.38
2022-10-05T09:20:55.049Z,80.80
2022-10-05T09:23:44.955Z,79.67
2022-10-05T09:26:30.198Z,80.02
2022-10-05T09:29:18.300Z,79.25
2022-10-05T09:32:16.478Z,78.60
2022-10-05T09:35:04.670Z,78.72
2022-10-05T09:38:13.349Z,78.50
2022-10-05T09:41:17.938Z,78.32
2022-10-05T09:44:12.395Z,77.94
2022-10-05T09:47:04.667Z,77.71
2022-10-05T09:50:09.796Z,77.79
2022-10-05T09:52:56.846Z,77.41
2022-10-05T09:55:42.116Z,77.75
2022-10-05T09:58:29.423Z,77.82
2022-10-05T10:01:33.780Z,77.96
2022-10-05T10:04:37.987Z,77.17
2022-10-05T10:07:22.692Z,75.96
2022-10-05T10:10:07.101Z,77.11
2022-10-05T10:12:42.540Z,76.52
2022-10-05T10:15:46.088Z,76.67
2022-10-05T10:18:36.081Z,76.60
2022-10-05T10:21:30.009Z,76.75
2022-10-05T10:24:02.003Z,76.78
2022-10-05T10:26:43.899Z,77.54
2022-10-05T10:29:22.368Z,78.20
2022-10-05T10:32:13.251Z,76.38
2022-10-05T10:35:18.828Z,77.18
2022-10-05T10:38:07.544Z,77.36
2022-10-05T10:40:51.994Z,76.72
2022-10-05T10:43:27.796Z,76.48
2022-10-05T10:46:09.213Z,76.95
2022-10-05T10:49:02.467Z,77.10
2022-10-05T10:51:59.739Z,77.14
2022-10-05T10:54:53.826Z,77.16
2022-10-05T10:57:37.973Z,76.72
2022-10-05T11:00:19.208Z,76.34
2022-10-05T11:03:08.391Z,76.90
2022-10-05T11:05:56.593Z,76.96
2022-10-05T11:08:37.554Z,77.18
2022-10-05T11:11:38.551Z,77.47
2022-10-05T11:14:21.121Z,77.91
2022-10-05T11:17:23.141Z,77.34
2022-10-05T11:20:10.257Z,76.96
2022-10-05T11:22:56.181Z,77.08
2022-10-05T11:25:34.550Z,76.91
2022-10-05T11:28:19.662Z,76.61
2022-10-05T11:31:01.452Z,76.88
2022-10-05T11:33:51.841Z,77.36
2022-10-05T11:36:46.572Z,76.93
2022-10-05T11:39:30.458Z,76.41
2022-10-05T11:42:48.623Z,75.79
2022-10-05T11:45:36.205Z,75.68
2022-10-05T11:48:07.145Z,75.21
2022-10-05T11:51:01.791Z,75.90
2022-10-05T11:53:37.461Z,75.33
2022-10-05T11:56:16.952Z,74.73
2022-10-05T11:58:53.287Z,75.03
2022-10-05T12:01:47.505Z,75.16
2022-10-05T12:04:23.015Z,73.85
2022-10-05T12:07:15.385Z,73.95
2022-10-05T12:10:17.220Z,73.36
2022-10-05T12:13:24.881Z,73.58
2022-10-05T12:15:57.024Z,72.06
2022-10-05T12:18:33.890Z,72.89
2022-10-05T12:21:27.588Z,72.64
2022-10-05T12:24:03.758Z,72.38
2022-10-05T12:26:55.496Z,72.33
2022-10-05T12:29:44.008Z,71.65
2022-10-05T12:32:17.022Z,71.57
2022-10-05T12:34:49.197Z,71.21
2022-10-05T12:37:30.788Z,71.31
2022-10-05T12:40:08.453Z,69.94
2022-10-05T12:42:51.143Z,70.33
2022-10-05T12:45:20.460Z,70.17
2022-10-05T12:48:06.876Z,70.13
2022-10-05T12:50:42.065Z,70.15
2022-10-05T12:53:11.398Z,70.35
2022-10-05T12:56:14.503Z,70.41
2022-10-05T12:59:04.512Z,70.38
2022-10-05T13:01:43.283Z,70.61
2022-10-05T13:04:28.623Z,69.62
2022-10-05T13:07:09.669Z,69.64
2022-10-05T13:09:46.428Z,70.87
2022-10-05T13:12:36.000Z,71.32
2022-10-05T13:15:20.029Z,72.05
2022-10-05T13:18:03.400Z,71.74
2022-10-05T13:20:37.822Z,71.77
2022-10-05T13:23:24.583Z,71.75
2022-10-05T13:26:00.668Z,71.21
2022-10-05T13:28:37.355Z,71.06
2022-10-05T13:31:14.932Z,71.51
2022-10-05T13:34:14.262Z,71.70
2022-10-05T13:37:05.882Z,71.69
2022-10-05T13:39:49.032Z,71.86
2022-10-05T13:42:21.337Z,71.66
2022-10-05T13:44:59.038Z,71.55
2022-10-05T13:47:41.960Z,71.23
2022-10-05T13:50:23.281Z,71.34
2022-10-05T13:53:04.628Z,71.54
2022-10-05T13:55:47.381Z,70.89
2022-10-05T13:58:51.968Z,69.59
2022-10-05T14:01:44.484Z,71.16
2022-10-05T14:04:28.454Z,70.70
2022-10-05T14:06:55.141Z,69.24
2022-10-05T14:09:22.012Z,68.65
2022-10-05T14:12:09.051Z,69.27
2022-10-05T14:14:56.291Z,69.79
2022-10-05T14:17:43.284Z,69.17
2022-10-05T14:20:31.385Z,68.77
2022-10-05T14:23:01.835Z,68.36
2022-10-05T14:25:45.312Z,67.68
2022-10-05T14:28:11.841Z,67.32
2022-10-05T14:30:39.756Z,67.00
2022-10-05T14:33:06.072Z,66.43
2022-10-05T14:35:44.591Z,66.64
2022-10-05T14:38:28.701Z,67.07
2022-10-05T14:41:19.010Z,67.95
2022-10-05T14:44:08.564Z,67.65
2022-10-05T14:46:36.520Z,66.68
2022-10-05T14:49:26.155Z,67.83
2022-10-05T14:51:54.460Z,66.64
2022-10-05T14:54:29.396Z,67.32
2022-10-05T14:57:20.273Z,67.80
2022-10-05T15:00:11.880Z,68.60
2022-10-05T15:03:20.248Z,67.90
2022-10-05T15:05:58.808Z,68.22
2022-10-05T15:08:41.363Z,67.09
2022-10-05T15:11:22.955Z,66.70
2022-10-05T15:13:50.099Z,67.13
2022-10-05T15:16:34.076Z,67.32
2022-10-05T15:19:21.640Z,67.61
2022-10-05T15:22:18.591Z,67.68
2022-10-05T15:25:01.559Z,68.18
2022-10-05T15:27:43.566Z,68.22
2022-10-05T15:30:12.563Z,68.81
2022-10-05T15:32:55.376Z,68.95
2022-10-05T15:35:24.468Z,68.67
2022-10-05T15:38:04.440Z,69.11
2022-10-05T15:40:44.425Z,68.89
2022-10-05T15:43:16.258Z,69.02
2022-10-05T15:45:54.636Z,69.10
2022-10-05T15:48:49.171Z,69.15
2022-10-05T15:51:40.594Z,69.66
2022-10-05T15:54:34.842Z,69.14
2022-10-05T15:57:26.046Z,69.30
2022-10-05T16:00:10.168Z,70.04
2022-10-05T16:03:14.547Z,70.19
2022-10-05T16:06:07.924Z,69.58
2022-10-05T16:08:54.176Z,69.86
2022-10-05T16:11:29.793Z,68.85
2022-10-05T16:14:37.939Z,69.46
2022-10-05T16:17:17.213Z,68.19
2022-10-05T16:20:12.391Z,68.69
2022-10-05T16:23:01.332Z,69.13
2022-10-05T16:25:49.343Z,68.83
2022-10-05T16:28:39.537Z,68.98
2022-10-05T16:31:16.304Z,69.09
2022-10-05T16:33:54.506Z,69.46
2022-10-05T16:36:41.445Z,69.27
2022-10-05T16:39:36.856Z,69.88
2022-10-05T16:42:14.590Z,69.94
2022-10-05T16:45:21.238Z,69.95
2022-10-05T16:47:57.654Z,69.82
2022-10-05T16:50:27.556Z,70.57
2022-10-05T16:53:03.396Z,70.34
2022-10-05T16:55:37.031Z,70.39
2022-10-05T16:58:17.891Z,71.23
2022-10-05T17:01:02.990Z,71.45
2022-10-05T17:03:57.106Z,71.30
2022-10-05T17:06:35.240Z,72.21
2022-10-05T17:09:34.807Z,71.79
2022-10-05T17:12:06.677Z,72.32
2022-10-05T17:15:14.512Z,71.80
2022-10-05T17:18:18.585Z,72.29
2022-10-05T17:21:00.919Z,72.59
2022-10-05T17:23:50.120Z,72.86
2022-10-05T17:26:22.437Z,72.81
2022-10-05T17:28:51.900Z,73.18
2022-10-05T17:31:21.659Z,73.44
2022-10-05T17:34:26.099Z,73.52
2022-10-05T17:36:58.277Z,73.72
2022-10-05T17:39:46.647Z,74.10
2022-10-05T17:42:31.413Z,73.60
2022-10-05T17:44:59.805Z,74.66
2022-10-05T17:47:58.984Z,74.31
2022-10-05T17:50:56.249Z,74.24
2022-10-05T17:53:54.504Z,74.17
2022-10-05T17:56:22.095Z,74.75
2022-10-05T17:58:54.319Z,74.29
2022-10-05T18:01:30.332Z,74.72
2022-10-05T18:04:12.199Z,74.44
2022-10-05T18:06:59.803Z,74.17
2022-10-05T18:09:27.234Z,74.62
2022-10-05T18:12:24.776Z,74.92
2022-10-05T18:15:00.167Z,74.54
2022-10-05T18:18:32.760Z,74.89
2022-10-05T18:21:15.063Z,75.17
2022-10-05T18:23:59.829Z,75.19
2022-10-05T18:26:40.232Z,75.67
2022-10-05T18:29:52.776Z,75.69
2022-10-05T18:32:42.452Z,75.57
2022-10-05T18:35:39.263Z,75.19
2022-10-05T18:38:43.652Z,75.58
2022-10-05T18:41:34.632Z,76.06
2022-10-05T18:44:31.606Z,76.20
2022-10-05T18:47:07.607Z,76.42
2022-10-05T18:49:52.154Z,76.70
2022-10-05T18:52:55.828Z,76.76
2022-10-05T18:55:37.847Z,76.89
2022-10-05T18:58:22.446Z,77.04
2022-10-05T19:01:27.889Z,76.66
2022-10-05T19:04:16.786Z,77.02
2022-10-05T19:07:12.891Z,77.36
2022-10-05T19:10:06.019Z,77.46
2022-10-05T19:12:44.728Z,77.26
2022-10-05T19:15:29.255Z,77.84
2022-10-05T19:18:18.485Z,77.82
2022-10-05T19:20:57.935Z,78.88
2022-10-05T19:23:50.939Z,79.18
2022-10-05T19:26:35.682Z,79.54
2022-10-05T19:29:30.854Z,79.44
2022-10-05T19:32:18.474Z,79.81
2022-10-05T19:35:02.701Z,79.42
2022-10-05T19:37:50.910Z,79.57
2022-10-05T19:40:55.285Z,79.78
2022-10-05T19:43:50.502Z,80.31
2022-10-05T19:46:21.298Z,80.75
2022-10-05T19:48:49.838Z,81.27
2022-10-05T19:51:25.443Z,84.29
2022-10-05T19:53:55.896Z,85.54
2022-10-05T19:56:25.452Z,85.92
2022-10-05T19:58:57.335Z,85.77
2022-10-05T20:01:41.756Z,87.50
2022-10-05T20:04:09.804Z,87.63
2022-10-05T20:06:39.355Z,88.52
2022-10-05T20:09:23.847Z,87.94
2022-10-05T20:11:52.035Z,88.66
2022-10-05T20:14:30.466Z,89.51
2022-10-05T20:17:46.647Z,89.51
2022-10-05T20:20:30.267Z,90.40
2022-10-05T20:23:18.429Z,90.85
2022-10-05T20:26:04.804Z,91.97
2022-10-05T20:28:33.088Z,92.70
2022-10-05T20:30:59.760Z,92.90
2022-10-05T20:33:27.305Z,93.64
2022-10-05T20:35:54.043Z,93.89
2022-10-05T20:38:20.819Z,93.68
2022-10-05T20:40:47.204Z,94.08
2022-10-05T20:43:13.645Z,93.90
2022-10-05T20:45:43.213Z,94.67
2022-10-05T20:48:10.989Z,95.71
2022-10-05T20:50:37.820Z,95.71
2022-10-05T20:53:09.635Z,95.80
2022-10-05T20:55:38.333Z,96.19
2022-10-05T20:58:04.894Z,96.14
2022-10-05T21:00:51.400Z,96.60
2022-10-05T21:03:19.209Z,96.67
2022-10-05T21:05:46.903Z,96.74
2022-10-05T21:08:13.809Z,96.72
2022-10-05T21:10:40.198Z,96.14
2022-10-05T21:13:06.584Z,96.74
2022-10-05T21:15:33.000Z,96.41
2022-10-05T21:17:59.387Z,94.38
2022-10-05T21:20:25.974Z,94.51
2022-10-05T21:22:52.364Z,94.08
2022-10-05T21:25:18.789Z,94.45
2022-10-05T21:27:46.271Z,94.91
2022-10-05T21:30:12.822Z,94.39
2022-10-05T21:32:43.969Z,94.85
2022-10-05T21:35:10.942Z,95.24
2022-10-05T21:37:37.349Z,94.88
2022-10-05T21:40:04.154Z,95.13
2022-10-05T21:42:30.763Z,95.48
2022-10-05T21:44:57.186Z,95.19
2022-10-05T21:47:23.582Z,95.65
2022-10-05T21:49:50.012Z,95.64
2022-10-05T21:52:16.501Z,95.90
2022-10-05T21:54:42.932Z,95.91
2022-10-05T21:57:10.911Z,95.80
2022-10-05T21:59:37.800Z,96.14
2022-10-05T22:02:04.356Z,96.51
2022-10-05T22:04:30.786Z,96.30
2022-10-05T22:06:57.373Z,96.50
2022-10-05T22:09:23.792Z,96.56
2022-10-05T22:11:50.150Z,96.77
2022-10-05T22:14:16.640Z,96.92
2022-10-05T22:16:44.519Z,96.86
2022-10-05T22:19:16.518Z,97.09
2022-10-05T22:21:42.941Z,97.39
2022-10-05T22:24:11.505Z,97.27
2022-10-05T22:26:39.788Z,97.61
2022-10-05T22:29:06.314Z,98.03
2022-10-05T22:31:32.804Z,98.05
2022-10-05T22:33:59.319Z,98.24
2022-10-05T22:36:26.040Z,98.43
2022-10-05T22:38:52.458Z,98.32
2022-10-05T22:41:19.068Z,98.43
2022-10-05T22:43:49.884Z,99.05
2022-10-05T22:46:16.721Z,98.85
2022-10-05T22:48:43.459Z,99.16
2022-10-05T22:51:10.247Z,99.37
2022-10-05T22:53:36.683Z,99.60
2022-10-05T22:56:07.904Z,99.29
2022-10-05T22:58:35.232Z,99.37
2022-10-05T23:01:07.082Z,99.39
2022-10-05T23:03:34.371Z,99.61
2022-10-05T23:06:06.756Z,99.09
2022-10-05T23:08:34.329Z,99.30
2022-10-05T23:11:15.429Z,98.99
2022-10-05T23:13:42.335Z,99.39
2022-10-05T23:16:16.672Z,99.38
2022-10-05T23:18:44.000Z,99.24
2022-10-05T23:21:11.410Z,99.28
2022-10-05T23:23:39.542Z,99.71
2022-10-05T23:26:08.171Z,99.53
2022-10-05T23:28:34.752Z,99.74
2022-10-05T23:31:06.708Z,99.85
2022-10-05T23:33:33.633Z,99.57
2022-10-05T23:36:12.810Z,99.08
2022-10-05T23:38:39.192Z,99.30
2022-10-05T23:41:06.608Z,99.30
2022-10-05T23:43:33.450Z,99.62
2022-10-05T23:46:00.243Z,99.33
2022-10-05T23:48:27.194Z,99.66
2022-10-05T23:50:55.583Z,99.66
2022-10-05T23:53:22.664Z,99.24
2022-10-05T23:55:53.382Z,99.07
2022-10-05T23:58:20.604Z,98.81
